Desk Aeronautico è consultabile gratuitamente, la pubblicità è l'unico modo per mantenere il sito online. Cercheremo di renderla il meno invasiva possibile, disattiva AdBlock!

Ultimi METAR emessi

Il METAR (Aerodrome routine meteorological report) è un messaggio codificato che descrive le condizioni meteorologiche osservate da una stazione meteo. I METAR sono reperibili presso gli ARO competenti. Scopri come leggere i METAR dalla nostra guida.

La lista degli ultimi METAR emessi da stazioni meteorologiche italiane sono elencati a seguire a puro scopo informativo. L’elenco degli indicatori di località ICAO è disponibile qui.


METAR LIBA 221455Z 09012KT CAVOK 32/16 Q1016 RMK SKC VIS MIN 9999 WIND THR11 09013KT WIND THR29 /////KT BLU=
METAR LIBC 221450Z 04005KT 350V080 CAVOK 31/15 Q1017=
METAR LIBD 221520Z 07006KT 030V130 CAVOK 29/22 Q1017=
METAR LIBE 221455Z 11001KT CAVOK 28/10 Q1021 RMK SKC MON LIB VAL NIL VIS MIN 9999=
METAR LIBF 221450Z 08011KT CAVOK 34/15 Q1016=
METAR LIBG 221450Z 26006KT 210V300 9999 FEW030 34/19 Q1016=
METAR LIBH 221455Z 19007KT CAVOK 32/24 Q1015 RMK SKC QUK 2 QUL 1 S VIS MAR 20 KM VIS MIN 9999=
METAR LIBN 221455Z 02007KT 9999 FEW035 32/27 Q1016 RMK FEW VIS MIN 9999 WIND THR14 02005KT WIND THR32 02005KT BLU=
METAR LIBP 221450Z 01009KT 9999 SCT110 28/22 Q1018=
METAR LIBQ 221455Z 04003KT 9999 SCT005 21/17 Q1025 RMK SCT MON LIB VAL NIL VIS MIN 9999=
METAR LIBR 221520Z 35009KT CAVOK 29/23 Q1016=
METAR LIBS 221455Z 07012KT 9999 FEW036 FEW038TCU 30/19 Q1023 RMK FEW MON LIB NC VIS MIN 9999=
METAR LIBT 221455Z 32007KT CAVOK 32/27 Q1017 RMK SKC QUK 3 QUL 1 NW VIS MAR 15 KM VIS MIN 9999=
METAR LIBU 221455Z 06005KT 9999 FEW033 27/11 Q1022 RMK FEW MON LIB VAL NIL VIS MIN 9999=
METAR LIBV 221455Z 01008KT 340V050 CAVOK 31/15 Q1017 RMK FEW FEW060 VIS MIN 9999 WIND THR32 36007KT WIND THR14 01008KT BLU=
METAR LIBW 221455Z 15002KT 9999 FEW020 27/23 Q1020 RMK FEW QUK 1 QUL 0 VIS MAR 20 KM MON CLD CIME VAL NIL VIS MIN 9999=
METAR LIBY 221455Z 23005KT CAVOK 29/21 Q1016 RMK SKC QUK 1 QUL 0 VIS MAR 20 KM VIS MIN 9999=
METAR LICA 221450Z 25006KT 210V270 9999 FEW020 BKN050 28/23 Q1017=
METAR LICB 221450Z 23010KT 200V260 9999 FEW040 31/18 Q1017=
METAR LICC 221520Z 09012KT CAVOK 30/23 Q1016=
METAR LICD 221450Z 11006KT CAVOK 29/21 Q1016=
METAR LICE 221455Z 10004KT 9999 SCT012 27/18 Q1018 RMK SCT MON LIB NC VAL NIL NC VIS MIN 9999=
METAR LICF 221455Z 07006KT 9999 FEW036 30/25 Q1016 RMK FEW QUK 2 QUL 0 VIS MAR 20 KM MON LIB NC VIS MIN 9999=
METAR LICG 221450Z 35004KT 9999 FEW015 28/22 Q1018=
METAR LICJ 221520Z 04018KT 9999 FEW045 28/24 Q1016=
METAR LICL 221455Z VRB07KT CAVOK 28/23 Q1016 RMK SKC QUK 2 QUL 0 VIS MAR 10 KM VIS MIN 9999=
METAR LICO 221455Z 07003KT 9999 FEW020 29/26 Q1015 RMK FEW QUK 2 QUL 0 VIS MAR 18 KM VIS MIN 9999=
METAR LICR 221450Z 24003KT 190V280 9999 SCT060 29/22 Q1016=
METAR LICT 221455Z 33008KT 9999 FEW022TCU 30/26 Q1017 RMK FEW VIS MIN 9999 WIND THR13 33008KT BLU=
METAR LICU 221455Z 01005KT 340V060 CAVOK 30/24 Q1019 RMK SKC QUK 1 QUL 0 VIS MAR 25 KM VIS MIN 9999=
METAR LICX 221355Z VRB03KT 9999 FEW020 SCT025 26/10 Q1022 RMK BKN MON LIB NC VAL NIL NC VIS MIN 9999=
METAR LICZ 221455Z 08013KT 9999 FEW020 SCT100 30/24 Q1016 RMK SCT VIS MIN 9999 WIND THR28 09012KT WIND THR10 08012KT A3002 BLU=
METAR LIEA 221520Z 35005KT 310V050 CAVOK 30/19 Q1016=
METAR LIEB 221455Z 15004KT CAVOK 27/23 Q1017 RMK BKN FEW090 SCT100 QUK 2 QUL 0 VIS MAR 30 KM MON LIB VIS MIN 9999=
METAR LIEC 221455Z 09015KT 9999 -RA FEW025TCU SCT027 27/24 Q1016 RMK BKN QUK 2 QUL 0 VIS MAR 18 KM VIS MIN 9999=
METAR LIED 221455Z 13010KT 9999 FEW020CB 26/23 Q1014 RMK OVC SCT110 VIS MIN 9999 WIND THR35 14012KT WIND THR17 /////KT BLU=
METAR LIEE 221520Z 17008KT 9999 FEW025 27/23 Q1016=
METAR LIEF 221455Z 36008KT 9999 FEW025 25/24 Q1017 RMK BKN SCT070 QUK 2 QUL 9 VIS MAR 18 KM VIS MIN 9999=
METAR LIEH 221455Z 31007KT CAVOK 27/24 Q1018 RMK BKN BKN080 QUK 2 QUL 0 VIS MAR 20 KM VIS MIN 9999=
METAR LIEL 221355Z 13003KT 9999 SCT010TCU SCT015 31/27 Q1017 RMK BKN VIS MAR 10 KM MON CLD CIME W VIS MIN 9999=
METAR LIEO 221520Z 12006KT 090V150 9999 SCT030 26/22 Q1017=
METAR LIEP 220555Z 00000KT 9999 FEW070 23/21 Q1019 RMK FEW VIS MIN 9999=
METAR LIMC 221520Z 28008KT 240V310 CAVOK 29/16 Q1020 NOSIG=
METAR LIME 221520Z VRB02KT CAVOK 29/16 Q1020 NOSIG=
METAR LIMF 221520Z 28003KT 250V320 CAVOK 25/17 Q1022=
METAR LIMG 221450Z 05007G18KT 340V120 CAVOK 31/13 Q1017=
METAR LIMH 221455Z 04007KT 6000 FEW000 SCT020 03/02 Q1037 RMK BKN MON CLD SCT VAL CLD SCT VIS MIN 6000=
METAR LIMJ 221520Z 36010KT 330V040 CAVOK 30/18 Q1017=
METAR LIMK 221455Z 19003KT 9999 SCT008 21/20 Q1023 RMK BKN VAL NIL VIS MIN 9999=
METAR LIMN 221455Z 23009KT 9999 FEW025 29/17 Q1020 RMK BKN SCT200 VIS MIN 9999 BLK BLU=
METAR LIMP 221450Z 12004KT 080V170 9999 FEW040 26/21 Q1020=
METAR LIMS 221455Z 12007KT 080V150 CAVOK 28/20 Q1019 RMK BKN BKN200 VIS MIN 9999 WIND THR30 11006KT BLU=
METAR LIMU 221455Z 04013KT 9999 FEW020 32/18 Q1019 RMK SCT QUK 3 QUL 1 E VIS MAR 30 KM VIS MIN 9999=
METAR LIMV 221455Z /////KT 9999 FEW012 24/18 Q1021 RMK FEW MON LIB VAL NIL VIS MIN 9999=
METAR LIMY 221455Z VRB03KT CAVOK 24/18 Q1023 RMK FEW FEW200 VAL NIL VIS MIN 9999=
METAR LIMZ 221450Z 36006KT 9999 FEW060 24/17 Q1022=
METAR LIPA 221455Z 04003KT 9999 FEW050 27/18 Q1020 RMK SCT SCT200 VIS MIN 9999 WIND THR05 /////KT WIND THR23 /////KT A3014 BLU=
METAR LIPB 221450Z VRB03KT 9999 FEW060TCU SCT120 29/15 Q1019 RMK MON LIB=
METAR LIPC 221455Z 02007KT 9999 FEW030 26/21 Q1019 RMK BKN BKN200 VIS MIN 9999 WIND THR11 /////KT WIND THR29 02010KT BLU=
METAR LIPE 221520Z 03003KT 340V100 9999 -RA SCT035 27/19 Q1019=
METAR LIPF 221455Z /////KT 9999 SCT025 SCT070 26/18 Q1020 RETS RMK BKN VIS MIN 9999=
METAR LIPH 221520Z 14004KT CAVOK 27/18 Q1019=
METAR LIPI 221355Z /////KT CAVOK 28/13 Q1019 RMK SCT FEW120 SCT200 VIS MIN 9999 WIND THR06 17004KT WIND THR24 06005KT BLU=
METAR LIPL 221455Z 19003KT 9999 FEW080 29/20 Q1019 RMK SCT VIS MIN 9999 WIND THR31 19005KT WIND THR13 20004KT BLU=
METAR LIPO 221450Z 16006KT CAVOK 27/17 Q1020=
METAR LIPQ 221520Z 07005KT 040V100 9999 SCT090 28/16 Q1019=
METAR LIPR 221520Z 01005KT 330V050 9999 FEW030 26/19 Q1019=
METAR LIPS 221455Z /////KT 9999 FEW025 SCT100 28/19 Q1019 RMK BKN VIS MIN 9999 WIND THR26 02004KT WIND THR08 07003KT BLU=
METAR LIPU 221350Z VRB03KT CAVOK 28/17 Q1020=
METAR LIPX 221520Z VRB02KT CAVOK 28/17 Q1020=
METAR LIPY 221450Z 36007KT 330V030 CAVOK 27/20 Q1019=
METAR LIPZ 221520Z 10005KT 9999 SCT060 27/16 Q1019 NOSIG=
METAR LIQB 221455Z 03006KT 9999 -TSRA SCT013CB FEW016TCU 28/21 Q1017 RMK BKN VIS MIN 7000SW=
METAR LIQC 221455Z 27004KT CAVOK 29/23 Q1018 RMK SKC QUK 0 QUL 0 VIS MAR 15 KM VIS MIN 9999=
METAR LIQJ 221455Z 28007KT CAVOK 26/23 Q1017 RMK FEW FEW100 QUK 1 QUL 0 VIS MAR 25 KM VIS MIN 9999=
METAR LIQK 221455Z 29008KT CAVOK 28/25 Q1017 RMK FEW FEW080 QUK 2 QUL 1 W VIS MAR 20 KM VIS MIN 9999=
METAR LIQN 221450Z 24007KT CAVOK 32/15 Q1017=
METAR LIQO 221455Z 28006KT 9999 SCT003 30/23 Q1020 RMK BKN SCT200 VAL NIL NC VIS MIN 9999=
METAR LIQR 221455Z 22003KT 9999 SCT020 29/16 Q1026 RMK SCT MON LIB NC VAL NIL NC VIS MIN 9999=
METAR LIQW 221355Z 18002KT 9999 FEW030TCU 31/21 Q1017 RMK SCT VIS MIN 9999 WIND THR18 16004KT BLU=
METAR LIQZ 221455Z 28007KT CAVOK 28/26 Q1017 RMK SKC QUK 1 QUL 1 NW VIS MAR 10 KM VIS MIN 9999=
METAR LIRA 221520Z 23006KT 180V270 CAVOK 31/15 Q1017=
METAR LIRB 221455Z 22007KT 9999 FEW020 30/13 Q1018 RMK SCT VIS MIN 9999=
METAR LIRE 221455Z 26007KT CAVOK 27/23 Q1017 RMK FEW FEW220 VIS MIN 9999 WIND THR13 27007KT WIND THR31 /////KT BLU=
METAR LIRF 221520Z 26011KT CAVOK 27/23 Q1017 NOSIG=
METAR LIRG 221455Z 24008KT CAVOK 32/18 Q1016 RMK SKC MON MON NE LIB NC VIS MIN 9999 BLU=
METAR LIRH 221455Z 18007KT 9999 FEW035 34/21 Q1016 RMK FEW MON LIB NC VIS MIN 9999 WIND THR16 19008KT BLU=
METAR LIRK 221455Z AUTO VRB05KT //// 21/13 Q1029=
METAR LIRL 221455Z 28005KT CAVOK 32/M30 Q1016 RMK SKC MON LIB NC VIS MIN 9999 WIND THR12 28004KT THR30 27005KT BLU=
METAR LIRM 221455Z 26010KT 9999 FEW030 30/26 Q1016 RMK FEW VIS MIN 9999 WIND THR06 24010KT BLU=
METAR LIRN 221520Z 31008KT 270V340 9999 FEW040 32/20 Q1016 NOSIG=
METAR LIRP 221515Z 32009KT 9999 FEW030 31/21 Q1016 NOSIG RMK BKN SCT170 VIS MIN 9999 WIND THR04 32009KT WIND THR22 31008KT BLU=
METAR LIRQ 221520Z 06011KT 9999 -RA VCTS SCT035CB BKN070 28/21 Q1018=
METAR LIRS 221455Z 22011KT 9999 FEW018CB FEW020TCU 29/22 Q1016 RMK BKN BKN200 VIS MIN 9999 WIND THR03 23011KT WIND THR21 22012KT BLU=
METAR LIRT 221455Z 07008KT 360V110 9999 FEW009 25/10 Q1022 RMK FEW MON LIB VAL NIL VIS MIN 9999=
METAR LIRU 221450Z 23008KT CAVOK 31/17 Q1016=
METAR LIRV 221455Z /////KT 9999 SCT028 30/18 Q1018 RMK SCT MON E SE LIB NC VIS MIN 9999 WIND THR04 /////KT BLU=
METAR LIRX 221455Z 00000KT 9999 FEW007 28/24 Q1018 RMK BKN SCT070 VIS MIN 9999 VIS MAR 30 KM=
METAR LIRZ 221450Z 36009KT 340V040 9999 SCT040 25/22 Q1017 RETSRA=
METAR LIVC 221455Z 33003KT CAVOK 15/10 Q1030 RMK SCT SCT060 MON CLD SCT VAL MAR CLD VIS MIN 9999=
METAR LIVD 221455Z /////KT 9999 FEW040 20/14 Q1027 RMK BKN SCT100 BKN220 VIS MIN 9999=
METAR LIVE 221455Z 17005KT 9999 FEW010TCU SCT015 20/09 Q1027 RMK BKN VIS MIN 9999=
METAR LIVF 221455Z 08005KT 9999 SCT024 FEW025TCU 24/17 Q1020 RMK OVC SCT080 MON S W CLD SCT VAL NIL VIS MIN 9999=
METAR LIVM 221455Z AUTO 02008KT //// 30/21 Q1020=
METAR LIVO 221455Z 10005KT 9999 SCT032 20/15 Q1024 RMK SCT VIS MIN 9999=
METAR LIVP 221455Z 19004KT 9999 FEW003TCU 16/10 Q1030 RMK BKN SCT200 MON CLD SCT VAL NIL VIS MIN 9999=
METAR LIVR 221455Z 14008KT 9999 SCT035 15/09 Q1030 RMK BKN BKN060 MON CLD CIME VIS MIN 9999=
METAR LIVT 221455Z 04010G21KT CAVOK 28/18 Q1018 RMK SCT SCT080 QUK 3 QUL 2 NE VIS MAR 20 KM VIS MIN 9999=

Informazioni elaborate dal Servizio Meteorologico dell’Aeronautica Militare e pubblicate sul sito www.meteoam.it

Pin It on Pinterest